Time;durP1;ratioP1;P1;durP2;ratioP2;P2;SDS_P1;SDS_P2;PMS_P1;PMS_P2;Temp;Humidity;BMP_temperature;BMP_pressure;BME280_temperature;BME280_humidity;BME280_pressure;Samples;Min_cycle;Max_cycle;Signal;HPM_P1;HPM_P2
2023/12/05 00:01:07;;;;;;;1.05;1.05;;;;;;;4.06;100.00;98841.44;5010926;28;20029;-66
2023/12/05 00:03:35;;;;;;;1.30;1.30;;;;;;;4.07;100.00;98832.63;5027424;28;20025;-66
2023/12/05 00:06:00;;;;;;;1.15;1.15;;;;;;;4.09;100.00;98836.09;5029170;28;20029;-65
2023/12/05 00:08:25;;;;;;;1.05;1.05;;;;;;;4.05;100.00;98829.19;5029434;28;20032;-66
2023/12/05 00:10:51;;;;;;;0.90;0.90;;;;;;;4.15;100.00;98835.94;5026298;28;20025;-66
2023/12/05 00:13:16;;;;;;;1.10;1.10;;;;;;;4.19;100.00;98824.44;5018688;28;20025;-66
2023/12/05 00:15:42;;;;;;;1.10;1.10;;;;;;;4.29;100.00;98825.91;5029013;28;20488;-66
2023/12/05 00:18:08;;;;;;;0.98;0.98;;;;;;;4.37;100.00;98833.59;5016732;28;20083;-65
2023/12/05 00:20:33;;;;;;;1.02;1.02;;;;;;;4.47;100.00;98828.06;5027762;28;20029;-66
2023/12/05 00:22:58;;;;;;;1.00;1.00;;;;;;;4.67;100.00;98831.00;5029560;28;20025;-66
2023/12/05 00:25:24;;;;;;;1.00;1.00;;;;;;;5.05;100.00;98833.41;5029343;28;20774;-66
2023/12/05 00:27:49;;;;;;;0.93;0.93;;;;;;;5.40;100.00;98820.00;5015492;28;20072;-66
2023/12/05 00:30:15;;;;;;;0.90;0.90;;;;;;;5.85;100.00;98827.44;5019622;28;20576;-66
2023/12/05 00:32:40;;;;;;;0.80;0.80;;;;;;;6.08;100.00;98830.16;5003720;28;20052;-66
2023/12/05 00:35:06;;;;;;;1.10;1.10;;;;;;;6.20;100.00;98824.44;5025723;28;20505;-66
2023/12/05 00:37:31;;;;;;;0.70;0.70;;;;;;;6.43;100.00;98819.25;5019417;28;20041;-65
2023/12/05 00:39:57;;;;;;;1.00;1.00;;;;;;;6.63;100.00;98827.31;5016204;28;20021;-65
2023/12/05 00:42:22;;;;;;;0.80;0.80;;;;;;;6.72;100.00;98834.06;5027124;28;20032;-65
2023/12/05 00:44:47;;;;;;;0.80;0.80;;;;;;;6.78;100.00;98840.00;5026865;28;20017;-65
2023/12/05 00:47:13;;;;;;;0.82;0.82;;;;;;;6.96;100.00;98843.72;5022842;28;20117;-65
2023/12/05 00:49:38;;;;;;;0.90;0.90;;;;;;;7.05;100.00;98832.84;5028880;28;20029;-65
2023/12/05 00:52:04;;;;;;;0.90;0.90;;;;;;;7.23;100.00;98838.25;5023856;28;20022;-65
2023/12/05 00:54:29;;;;;;;0.90;0.90;;;;;;;7.24;100.00;98833.84;5026860;28;20056;-65
2023/12/05 00:56:55;;;;;;;0.80;0.80;;;;;;;7.36;100.00;98839.56;5039750;28;20024;-65
2023/12/05 00:59:20;;;;;;;0.70;0.70;;;;;;;7.45;100.00;98844.47;5034453;28;20033;-65
2023/12/05 01:01:47;;;;;;;0.80;0.80;;;;;;;7.48;100.00;98849.63;5036469;28;20037;-65
2023/12/05 01:04:12;;;;;;;0.80;0.80;;;;;;;7.54;100.00;98857.34;5036754;28;20021;-64
2023/12/05 01:06:37;;;;;;;0.80;0.80;;;;;;;7.60;100.00;98859.75;5031903;28;20036;-65
2023/12/05 01:09:05;;;;;;;0.75;0.75;;;;;;;7.67;100.00;98866.53;4998129;28;20048;-65
2023/12/05 01:11:31;;;;;;;0.77;0.77;;;;;;;7.68;100.00;98862.97;5020036;28;20032;-65
2023/12/05 01:13:56;;;;;;;0.70;0.70;;;;;;;7.77;100.00;98859.09;5037758;28;20088;-65
2023/12/05 01:16:21;;;;;;;0.60;0.60;;;;;;;7.77;100.00;98857.31;5019234;28;20461;-65
2023/12/05 01:18:47;;;;;;;0.70;0.70;;;;;;;7.88;100.00;98860.38;5027858;28;20028;-65
2023/12/05 01:21:12;;;;;;;0.80;0.80;;;;;;;7.89;100.00;98855.97;5015086;28;20033;-65
2023/12/05 01:23:38;;;;;;;0.80;0.80;;;;;;;7.85;100.00;98852.56;5013788;28;20474;-65
2023/12/05 01:26:03;;;;;;;0.70;0.70;;;;;;;8.02;100.00;98868.63;5014399;28;20032;-65
2023/12/05 01:28:29;;;;;;;0.70;0.70;;;;;;;8.04;100.00;98872.06;5018080;28;20562;-65
2023/12/05 01:30:54;;;;;;;0.73;0.73;;;;;;;7.99;100.00;98871.41;5015802;28;20037;-65
2023/12/05 01:33:19;;;;;;;0.70;0.70;;;;;;;7.96;100.00;98878.59;5036603;28;20067;-64
2023/12/05 01:35:45;;;;;;;0.80;0.80;;;;;;;7.93;100.00;98879.59;5037602;28;20022;-64
2023/12/05 01:38:10;;;;;;;0.70;0.70;;;;;;;7.89;100.00;98887.72;4998824;28;20021;-65
2023/12/05 01:40:35;;;;;;;0.80;0.80;;;;;;;7.91;100.00;98878.78;5005619;28;20582;-65
2023/12/05 01:43:01;;;;;;;0.80;0.80;;;;;;;7.88;100.00;98886.88;5022648;28;20038;-64
2023/12/05 01:45:27;;;;;;;0.60;0.60;;;;;;;7.81;100.00;98885.38;5019568;28;20022;-64
2023/12/05 01:47:53;;;;;;;0.80;0.80;;;;;;;7.81;100.00;98865.97;5033176;28;20029;-64
2023/12/05 01:50:24;;;;;;;0.90;0.90;;;;;;;7.74;100.00;98865.34;5032556;28;20045;-65
2023/12/05 01:52:53;;;;;;;0.68;0.68;;;;;;;7.79;100.00;98868.69;5020933;28;20108;-64
2023/12/05 01:55:19;;;;;;;0.60;0.60;;;;;;;7.83;100.00;98883.53;5033464;28;20020;-64
2023/12/05 01:57:47;;;;;;;0.77;0.77;;;;;;;7.85;100.00;98892.28;5034522;28;20036;-65
2023/12/05 02:00:38;;;;;;;0.80;0.80;;;;;;;7.82;100.00;98884.44;5029137;28;20026;-65
2023/12/05 02:03:03;;;;;;;0.80;0.80;;;;;;;7.77;100.00;98889.06;5011290;28;20034;-64
2023/12/05 02:05:29;;;;;;;0.80;0.80;;;;;;;7.77;100.00;98894.38;5026909;28;20032;-64
2023/12/05 02:07:54;;;;;;;0.70;0.70;;;;;;;7.79;100.00;98889.00;5028868;28;20034;-64
2023/12/05 02:10:20;;;;;;;0.70;0.70;;;;;;;7.76;100.00;98884.69;5025518;28;20026;-64
2023/12/05 02:12:46;;;;;;;0.70;0.70;;;;;;;7.78;100.00;98885.50;5024149;28;20454;-64
2023/12/05 02:15:12;;;;;;;0.70;0.70;;;;;;;7.73;100.00;98884.81;5027314;28;20044;-64
2023/12/05 02:18:03;;;;;;;0.80;0.80;;;;;;;7.68;100.00;98892.06;5016873;28;20100;-64
2023/12/05 02:20:41;;;;;;;0.80;0.80;;;;;;;7.61;100.00;98882.63;5006483;28;20037;-64
2023/12/05 02:23:19;;;;;;;0.82;0.82;;;;;;;7.63;100.00;98880.81;5021547;28;20032;-64
2023/12/05 02:25:56;;;;;;;0.82;0.82;;;;;;;7.61;100.00;98877.34;5029360;28;20025;-64
2023/12/05 02:28:25;;;;;;;0.90;0.90;;;;;;;7.52;100.00;98875.06;5011811;28;20044;-64
2023/12/05 02:30:52;;;;;;;0.85;0.85;;;;;;;7.45;100.00;98876.22;5011799;28;20044;-64
2023/12/05 02:33:18;;;;;;;0.70;0.70;;;;;;;7.44;100.00;98879.78;5025255;28;20017;-64
2023/12/05 02:35:44;;;;;;;0.90;0.90;;;;;;;7.37;100.00;98880.94;5031876;28;20667;-64
2023/12/05 02:38:16;;;;;;;0.80;0.80;;;;;;;7.34;100.00;98883.72;5025761;28;20084;-64
2023/12/05 02:41:04;;;;;;;0.70;0.70;;;;;;;7.26;100.00;98879.63;4994512;28;20037;-64
2023/12/05 02:43:38;;;;;;;0.88;0.88;;;;;;;7.23;100.00;98875.28;5012965;28;20979;-64
2023/12/05 02:46:07;;;;;;;0.90;0.90;;;;;;;7.24;100.00;98865.59;5021860;28;20556;-64
2023/12/05 02:48:34;;;;;;;0.80;0.80;;;;;;;7.18;100.00;98871.13;5031906;28;20037;-64
2023/12/05 02:51:00;;;;;;;0.80;0.80;;;;;;;7.24;100.00;98863.81;5018475;28;20046;-64
2023/12/05 02:53:25;;;;;;;0.80;0.80;;;;;;;7.29;100.00;98875.09;5012135;28;20034;-64
2023/12/05 02:55:51;;;;;;;0.60;0.60;;;;;;;7.23;100.00;98863.88;5014770;28;20033;-64
2023/12/05 02:58:16;;;;;;;0.60;0.60;;;;;;;7.21;100.00;98876.28;5011934;28;20040;-64
2023/12/05 03:00:42;;;;;;;0.80;0.80;;;;;;;7.22;100.00;98876.22;5020343;28;20033;-64
2023/12/05 03:03:07;;;;;;;0.85;0.85;;;;;;;7.40;100.00;98870.25;5019748;28;20033;-64
2023/12/05 03:05:33;;;;;;;0.70;0.70;;;;;;;7.52;100.00;98888.28;5031635;28;20049;-64
2023/12/05 03:07:58;;;;;;;0.80;0.80;;;;;;;7.52;100.00;98885.66;5026410;28;20164;-64
2023/12/05 03:10:24;;;;;;;0.95;0.95;;;;;;;7.46;100.00;98877.09;5011163;28;20032;-64
2023/12/05 03:12:49;;;;;;;0.68;0.68;;;;;;;7.53;100.00;98879.44;5023641;28;20025;-64
2023/12/05 03:15:15;;;;;;;0.90;0.90;;;;;;;7.60;100.00;98878.28;5015235;28;20029;-64
2023/12/05 03:17:40;;;;;;;0.80;0.80;;;;;;;7.66;100.00;98880.69;5010604;28;20036;-64
2023/12/05 03:20:06;;;;;;;0.63;0.63;;;;;;;7.67;100.00;98893.00;5013398;28;20770;-64
2023/12/05 03:22:32;;;;;;;0.68;0.68;;;;;;;7.69;100.00;98893.78;5010617;28;20123;-64
2023/12/05 03:24:57;;;;;;;0.80;0.80;;;;;;;7.69;100.00;98893.78;5010558;28;20100;-64
2023/12/05 03:27:23;;;;;;;0.70;0.70;;;;;;;7.73;100.00;98891.88;5013119;28;20377;-64
2023/12/05 03:29:48;;;;;;;0.80;0.80;;;;;;;7.71;100.00;98894.59;4993530;28;20041;-64
2023/12/05 03:32:13;;;;;;;0.80;0.80;;;;;;;7.68;100.00;98884.13;5022998;28;20068;-64
2023/12/05 03:34:39;;;;;;;0.80;0.80;;;;;;;7.64;100.00;98887.81;5027949;28;20049;-64
2023/12/05 03:37:04;;;;;;;0.88;0.88;;;;;;;7.60;100.00;98886.22;5012867;28;20034;-64
2023/12/05 03:39:30;;;;;;;0.70;0.70;;;;;;;7.55;100.00;98877.59;5010728;28;20465;-64
2023/12/05 03:41:55;;;;;;;0.80;0.80;;;;;;;7.65;100.00;98883.38;5012849;28;20030;-64
2023/12/05 03:44:21;;;;;;;0.70;0.70;;;;;;;7.69;100.00;98883.19;5010341;28;20030;-64
2023/12/05 03:46:46;;;;;;;0.80;0.80;;;;;;;7.68;100.00;98891.19;5026702;28;20117;-64
2023/12/05 03:49:11;;;;;;;0.80;0.80;;;;;;;7.70;100.00;98884.94;5030854;28;20029;-64
2023/12/05 03:51:37;;;;;;;0.70;0.70;;;;;;;7.59;100.00;98876.56;5026918;28;20029;-64
2023/12/05 03:54:02;;;;;;;0.60;0.60;;;;;;;7.72;100.00;98896.34;5030454;28;20501;-64
2023/12/05 03:56:28;;;;;;;0.70;0.70;;;;;;;7.74;100.00;98902.41;5028183;28;20013;-64
2023/12/05 03:58:53;;;;;;;0.75;0.75;;;;;;;7.77;100.00;98898.78;5029552;28;20385;-64
2023/12/05 04:01:19;;;;;;;0.75;0.75;;;;;;;7.76;100.00;98903.22;5030424;28;20182;-65
2023/12/05 04:03:44;;;;;;;0.80;0.80;;;;;;;7.70;100.00;98897.31;5030230;28;20036;-65
2023/12/05 04:06:19;;;;;;;0.80;0.80;;;;;;;7.81;100.00;98901.25;5017262;28;20045;-64
2023/12/05 04:08:44;;;;;;;0.80;0.80;;;;;;;7.83;100.00;98896.78;5009340;28;20045;-64
2023/12/05 04:11:10;;;;;;;0.90;0.90;;;;;;;7.81;100.00;98890.66;5008885;28;20026;-64
2023/12/05 04:13:36;;;;;;;0.90;0.90;;;;;;;7.84;100.00;98903.78;5011078;28;20075;-64
2023/12/05 04:16:02;;;;;;;0.80;0.80;;;;;;;7.84;100.00;98895.00;5026679;28;20551;-65
2023/12/05 04:18:27;;;;;;;0.80;0.80;;;;;;;7.80;100.00;98904.84;5029184;28;20036;-64
2023/12/05 04:20:53;;;;;;;0.80;0.80;;;;;;;7.82;100.00;98908.25;5024755;28;20037;-64
2023/12/05 04:23:18;;;;;;;0.82;0.82;;;;;;;7.84;100.00;98911.72;5028207;28;20026;-64
2023/12/05 04:25:43;;;;;;;0.90;0.90;;;;;;;7.82;100.00;98910.06;5043721;28;20022;-66
2023/12/05 04:28:09;;;;;;;0.75;0.75;;;;;;;7.85;100.00;98917.88;5022225;28;20089;-66
2023/12/05 04:30:34;;;;;;;0.90;0.90;;;;;;;7.86;100.00;98920.47;5036080;28;20029;-66
2023/12/05 04:32:59;;;;;;;0.80;0.80;;;;;;;7.78;100.00;98906.66;5018058;28;20075;-66
2023/12/05 04:35:25;;;;;;;0.80;0.80;;;;;;;7.85;100.00;98913.47;5027552;28;20073;-65
2023/12/05 04:37:50;;;;;;;0.80;0.80;;;;;;;7.81;100.00;98910.97;5020791;28;20022;-65
2023/12/05 04:40:16;;;;;;;0.82;0.82;;;;;;;7.84;100.00;98922.31;4997323;28;20460;-65
2023/12/05 04:42:41;;;;;;;0.82;0.82;;;;;;;7.85;100.00;98926.69;5014542;28;20021;-65
2023/12/05 04:45:07;;;;;;;0.85;0.85;;;;;;;7.88;100.00;98917.75;5019951;28;20082;-66
2023/12/05 04:47:32;;;;;;;0.63;0.63;;;;;;;7.90;100.00;98930.03;5037789;28;20587;-65
2023/12/05 04:49:58;;;;;;;0.70;0.70;;;;;;;7.94;100.00;98933.38;5037105;28;20037;-65
2023/12/05 04:52:23;;;;;;;0.77;0.77;;;;;;;7.97;100.00;98928.84;5036918;28;20528;-65
2023/12/05 04:54:49;;;;;;;0.70;0.70;;;;;;;8.00;100.00;98931.41;5019322;28;20026;-65
2023/12/05 04:57:14;;;;;;;0.80;0.80;;;;;;;8.06;100.00;98932.91;5015818;28;20077;-65
2023/12/05 04:59:40;;;;;;;0.80;0.80;;;;;;;8.07;100.00;98932.84;5022759;28;20057;-64
2023/12/05 05:02:05;;;;;;;0.80;0.80;;;;;;;8.19;100.00;98926.19;5031292;28;20048;-64
2023/12/05 05:04:30;;;;;;;0.80;0.80;;;;;;;8.22;100.00;98927.88;5021660;28;20057;-64
2023/12/05 05:06:56;;;;;;;0.90;0.90;;;;;;;8.30;100.00;98931.09;5022381;28;20077;-65
2023/12/05 05:09:21;;;;;;;0.73;0.73;;;;;;;8.31;100.00;98935.47;5027108;28;20556;-64
2023/12/05 05:11:46;;;;;;;0.90;0.90;;;;;;;8.33;100.00;98934.50;5044679;28;20041;-64
2023/12/05 05:14:12;;;;;;;0.80;0.80;;;;;;;8.34;100.00;98938.88;5041932;28;20056;-65
2023/12/05 05:16:37;;;;;;;0.80;0.80;;;;;;;8.36;100.00;98937.03;5046981;28;20021;-64
2023/12/05 05:19:03;;;;;;;0.80;0.80;;;;;;;8.45;100.00;98941.09;5049149;28;20056;-65
2023/12/05 05:21:28;;;;;;;0.73;0.73;;;;;;;8.49;100.00;98937.38;5027704;28;20030;-65
2023/12/05 05:23:54;;;;;;;0.80;0.80;;;;;;;8.49;100.00;98942.66;5014740;28;20100;-65
2023/12/05 05:26:19;;;;;;;0.80;0.80;;;;;;;8.48;100.00;98940.94;5014422;28;20107;-65
2023/12/05 05:28:44;;;;;;;0.80;0.80;;;;;;;8.49;100.00;98945.31;5021930;28;20962;-65
2023/12/05 05:31:10;;;;;;;0.90;0.90;;;;;;;8.47;100.00;98940.09;5036206;28;20017;-65
2023/12/05 05:33:35;;;;;;;0.70;0.70;;;;;;;8.43;100.00;98942.94;5037469;28;20147;-65
2023/12/05 05:36:00;;;;;;;0.88;0.88;;;;;;;8.42;100.00;98943.88;5025313;28;20085;-64
2023/12/05 05:38:26;;;;;;;0.75;0.75;;;;;;;8.43;100.00;98945.56;5023839;28;20032;-64
2023/12/05 05:41:02;;;;;;;0.68;0.68;;;;;;;8.38;100.00;98935.19;5021493;28;20036;-64
2023/12/05 05:43:28;;;;;;;0.80;0.80;;;;;;;8.45;100.00;98941.09;5026001;28;20499;-65
2023/12/05 05:45:53;;;;;;;0.70;0.70;;;;;;;8.37;100.00;98937.91;5030860;28;20080;-64
2023/12/05 05:48:18;;;;;;;0.80;0.80;;;;;;;8.40;100.00;98943.91;5039926;28;20029;-64
2023/12/05 05:50:44;;;;;;;0.80;0.80;;;;;;;8.35;100.00;98939.75;5044037;28;20036;-64
2023/12/05 05:53:09;;;;;;;0.80;0.80;;;;;;;8.33;100.00;98941.56;5039084;28;20054;-63
2023/12/05 05:55:34;;;;;;;0.70;0.70;;;;;;;8.39;100.00;98946.63;5044245;28;20057;-64
2023/12/05 05:58:00;;;;;;;0.80;0.80;;;;;;;8.40;100.00;98949.19;5028846;28;20056;-63
2023/12/05 06:00:26;;;;;;;0.80;0.80;;;;;;;8.42;100.00;98957.13;5042440;28;20029;-63
2023/12/05 06:02:52;;;;;;;0.80;0.80;;;;;;;8.41;100.00;98950.06;5038179;28;20063;-63
2023/12/05 06:05:17;;;;;;;0.82;0.82;;;;;;;8.38;100.00;98955.50;5044174;28;20075;-63
2023/12/05 06:07:42;;;;;;;0.80;0.80;;;;;;;8.36;100.00;98946.75;5043891;28;20110;-63
2023/12/05 06:10:08;;;;;;;0.85;0.85;;;;;;;8.41;100.00;98948.28;5043113;28;20025;-63
2023/12/05 06:12:34;;;;;;;0.80;0.80;;;;;;;8.43;100.00;98958.81;5017290;28;20437;-63
2023/12/05 06:14:59;;;;;;;0.70;0.70;;;;;;;8.41;100.00;98955.38;5023449;28;20064;-64
2023/12/05 06:17:24;;;;;;;0.90;0.90;;;;;;;8.44;100.00;98964.06;5026076;28;20978;-62
2023/12/05 06:19:50;;;;;;;0.80;0.80;;;;;;;8.43;100.00;98956.19;5019069;28;20048;-63
2023/12/05 06:22:15;;;;;;;0.80;0.80;;;;;;;8.45;100.00;98959.63;5041959;28;20078;-63
2023/12/05 06:24:41;;;;;;;0.90;0.90;;;;;;;8.50;100.00;98962.97;5039512;28;20033;-62
2023/12/05 06:27:06;;;;;;;1.00;1.00;;;;;;;8.48;99.80;98956.84;5041032;28;20024;-62
2023/12/05 06:29:32;;;;;;;0.80;0.80;;;;;;;8.47;100.00;98965.72;5029307;28;20032;-63
2023/12/05 06:31:57;;;;;;;0.90;0.90;;;;;;;8.47;99.75;98971.00;5015796;28;20103;-63
2023/12/05 06:34:24;;;;;;;0.90;0.90;;;;;;;8.44;99.81;98963.19;5039156;28;20057;-63
2023/12/05 06:36:49;;;;;;;0.80;0.80;;;;;;;8.46;99.49;98970.16;5020982;28;20555;-63
2023/12/05 06:39:14;;;;;;;0.80;0.80;;;;;;;8.46;99.48;98980.78;5021472;28;20022;-63
2023/12/05 06:41:40;;;;;;;0.80;0.80;;;;;;;8.48;99.26;98972.75;5022667;28;20109;-63
2023/12/05 06:44:05;;;;;;;0.70;0.70;;;;;;;8.50;99.21;98976.22;5021105;28;20026;-64
2023/12/05 06:46:30;;;;;;;0.80;0.80;;;;;;;8.49;98.77;98969.16;4995758;28;20029;-65
2023/12/05 06:48:57;;;;;;;0.70;0.70;;;;;;;8.48;98.81;98973.63;5012271;28;20101;-66
2023/12/05 06:51:23;;;;;;;0.80;0.80;;;;;;;8.50;98.61;98976.22;5011110;28;20037;-65
2023/12/05 06:53:48;;;;;;;0.88;0.88;;;;;;;8.49;98.46;98983.28;5014332;28;20034;-65
2023/12/05 06:56:15;;;;;;;0.90;0.90;;;;;;;8.49;98.27;98982.41;5010597;28;20132;-65
2023/12/05 06:58:41;;;;;;;0.80;0.80;;;;;;;8.49;98.01;98982.41;5010514;28;20018;-65
2023/12/05 07:01:07;;;;;;;0.80;0.80;;;;;;;8.47;98.49;98995.72;5013548;28;20036;-65
2023/12/05 07:03:33;;;;;;;0.80;0.80;;;;;;;8.45;98.50;99005.53;5015471;28;20037;-66
2023/12/05 07:05:58;;;;;;;0.70;0.70;;;;;;;8.52;97.94;99000.84;5029407;28;20021;-65
2023/12/05 07:08:24;;;;;;;0.80;0.80;;;;;;;8.50;97.55;99002.72;5024674;28;20025;-65
2023/12/05 07:10:49;;;;;;;0.80;0.80;;;;;;;8.51;97.32;99000.00;5030218;28;20112;-65
2023/12/05 07:13:15;;;;;;;0.80;0.80;;;;;;;8.47;97.18;99008.97;5030685;28;20037;-65
2023/12/05 07:15:41;;;;;;;0.80;0.80;;;;;;;8.46;97.54;99017.88;5031531;28;20068;-65
2023/12/05 07:18:06;;;;;;;0.73;0.73;;;;;;;8.45;97.31;99015.28;5019967;28;20032;-65
2023/12/05 07:20:32;;;;;;;0.90;0.90;;;;;;;8.40;97.35;99007.50;5030195;28;20463;-65
2023/12/05 07:22:57;;;;;;;0.80;0.80;;;;;;;8.49;97.43;99024.81;5030560;28;20132;-65
2023/12/05 07:25:23;;;;;;;0.77;0.77;;;;;;;8.49;96.78;99031.00;5027383;28;20025;-66
2023/12/05 07:27:48;;;;;;;0.80;0.80;;;;;;;8.49;96.59;99027.47;5029801;28;20041;-65
2023/12/05 07:30:14;;;;;;;0.80;0.80;;;;;;;8.51;95.87;99023.84;5013123;28;20119;-65
2023/12/05 07:32:39;;;;;;;0.90;0.90;;;;;;;8.51;95.64;99030.91;5025666;28;20485;-65
2023/12/05 07:35:05;;;;;;;0.82;0.82;;;;;;;8.55;95.46;99022.78;5027445;28;20481;-65
2023/12/05 07:37:30;;;;;;;0.90;0.90;;;;;;;8.58;95.19;99032.41;5025016;28;20032;-65
2023/12/05 07:39:56;;;;;;;0.73;0.73;;;;;;;8.59;95.64;99039.44;5028079;28;20431;-65
2023/12/05 07:42:21;;;;;;;0.93;0.93;;;;;;;8.58;95.67;99054.47;5028819;28;20025;-65
2023/12/05 07:44:47;;;;;;;0.77;0.77;;;;;;;8.59;95.81;99044.72;5028841;28;20026;-65
2023/12/05 07:47:13;;;;;;;0.90;0.90;;;;;;;8.55;96.00;99054.59;5025775;28;20044;-64
2023/12/05 07:49:43;;;;;;;0.80;0.80;;;;;;;8.55;96.12;99059.03;5028852;28;20037;-64
2023/12/05 07:52:09;;;;;;;0.80;0.80;;;;;;;8.53;95.76;99058.22;5017463;28;20018;-65
2023/12/05 07:54:34;;;;;;;0.73;0.73;;;;;;;8.55;96.14;99062.53;5023123;28;20642;-64
2023/12/05 07:56:59;;;;;;;0.80;0.80;;;;;;;8.49;96.18;99060.13;5027293;28;20551;-65
2023/12/05 07:59:25;;;;;;;0.75;0.75;;;;;;;8.56;96.13;99066.06;5011111;28;20132;-64
2023/12/05 08:01:50;;;;;;;0.80;0.80;;;;;;;8.53;96.11;99063.53;5026852;28;20029;-64
2023/12/05 08:04:16;;;;;;;0.85;0.85;;;;;;;8.54;95.94;99063.47;5028042;28;20380;-64
2023/12/05 08:06:41;;;;;;;0.80;0.80;;;;;;;8.53;95.87;99066.19;5027619;28;20891;-64
2023/12/05 08:09:06;;;;;;;0.80;0.80;;;;;;;8.58;95.47;99059.75;5026518;28;20052;-64
2023/12/05 08:11:32;;;;;;;0.80;0.80;;;;;;;8.60;95.04;99057.06;5030029;28;20040;-64
2023/12/05 08:13:57;;;;;;;0.80;0.80;;;;;;;8.62;95.25;99050.78;5028871;28;20033;-65
2023/12/05 08:16:23;;;;;;;0.80;0.80;;;;;;;8.70;94.78;99059.28;5023942;28;20535;-64
2023/12/05 08:18:48;;;;;;;0.80;0.80;;;;;;;8.79;94.15;99060.69;5027671;28;20048;-64
2023/12/05 08:21:13;;;;;;;0.70;0.70;;;;;;;8.85;93.80;99063.09;5025458;28;20033;-64
2023/12/05 08:23:39;;;;;;;0.77;0.77;;;;;;;8.93;93.97;99061.84;5023539;28;20033;-64
2023/12/05 08:26:05;;;;;;;0.80;0.80;;;;;;;8.95;92.92;99069.75;5016149;28;20018;-64
2023/12/05 08:28:30;;;;;;;0.70;0.70;;;;;;;9.03;91.95;99059.69;5018958;28;20021;-64
2023/12/05 08:30:56;;;;;;;0.75;0.75;;;;;;;9.01;92.11;99064.22;5024359;28;20029;-64
2023/12/05 08:33:21;;;;;;;0.80;0.80;;;;;;;9.07;92.08;99058.63;5025482;28;20033;-64
2023/12/05 08:35:47;;;;;;;0.70;0.70;;;;;;;9.05;91.43;99065.78;5022420;28;20083;-64
2023/12/05 08:38:12;;;;;;;0.60;0.60;;;;;;;9.14;90.97;99068.06;5029384;28;20025;-65
2023/12/05 08:40:38;;;;;;;0.70;0.70;;;;;;;9.21;90.22;99062.44;5019185;28;20582;-65
2023/12/05 08:43:04;;;;;;;0.80;0.80;;;;;;;9.30;90.40;99071.81;5018961;28;20033;-65
2023/12/05 08:45:30;;;;;;;0.60;0.60;;;;;;;9.38;89.48;99067.03;5028283;28;20104;-65
2023/12/05 08:47:55;;;;;;;0.63;0.63;;;;;;;9.46;89.16;99059.59;5023411;28;20576;-65
2023/12/05 08:50:21;;;;;;;0.70;0.70;;;;;;;9.62;89.09;99068.59;5025013;28;20040;-65
2023/12/05 08:52:47;;;;;;;0.70;0.70;;;;;;;9.66;88.12;99074.66;5019641;28;20591;-65
2023/12/05 08:55:13;;;;;;;0.70;0.70;;;;;;;9.60;87.49;99064.31;5024683;28;20381;-64
2023/12/05 08:57:39;;;;;;;0.70;0.70;;;;;;;9.67;86.60;99065.78;5023463;28;20030;-65
2023/12/05 09:00:05;;;;;;;0.70;0.70;;;;;;;9.73;86.63;99070.81;5027139;28;20473;-65
2023/12/05 09:02:31;;;;;;;0.60;0.60;;;;;;;9.71;85.27;99077.97;5025228;28;20029;-65
2023/12/05 09:04:56;;;;;;;0.80;0.80;;;;;;;9.87;86.15;99074.56;5027765;28;20095;-65
2023/12/05 09:07:22;;;;;;;0.80;0.80;;;;;;;10.01;85.43;99076.59;5024497;28;20060;-65
2023/12/05 09:09:48;;;;;;;0.70;0.70;;;;;;;10.50;83.92;99076.97;5013417;28;20030;-65
2023/12/05 09:12:14;;;;;;;0.65;0.65;;;;;;;10.63;81.06;99072.78;5020449;28;20038;-66
2023/12/05 09:14:39;;;;;;;0.70;0.70;;;;;;;10.58;79.14;99079.25;5028679;28;20033;-65
2023/12/05 09:17:06;;;;;;;0.70;0.70;;;;;;;10.48;80.30;99078.81;5029008;28;20033;-65
2023/12/05 09:19:32;;;;;;;0.70;0.70;;;;;;;10.41;80.86;99088.03;5020326;28;20084;-65
2023/12/05 09:21:57;;;;;;;0.70;0.70;;;;;;;10.22;81.42;99099.56;5027414;28;20033;-66
2023/12/05 09:24:22;;;;;;;0.80;0.80;;;;;;;10.03;82.89;99091.53;5024462;28;20039;-66
2023/12/05 09:26:48;;;;;;;0.80;0.80;;;;;;;9.94;82.47;99091.97;5014097;28;20088;-65
2023/12/05 09:29:13;;;;;;;0.73;0.73;;;;;;;9.81;82.56;99096.09;5010981;28;20097;-65
2023/12/05 09:31:39;;;;;;;0.70;0.70;;;;;;;9.71;82.99;99100.09;5015859;28;20112;-65
2023/12/05 09:34:04;;;;;;;0.70;0.70;;;;;;;9.68;84.57;99105.53;5026661;28;20572;-65
2023/12/05 09:36:30;;;;;;;0.60;0.60;;;;;;;9.66;84.51;99102.06;5032332;28;20060;-65
2023/12/05 09:38:56;;;;;;;0.80;0.80;;;;;;;9.76;85.17;99103.41;5023452;28;20084;-65
2023/12/05 09:41:22;;;;;;;0.65;0.65;;;;;;;9.90;84.40;99094.84;5014734;28;20497;-65
2023/12/05 09:43:51;;;;;;;0.70;0.70;;;;;;;10.01;83.86;99103.16;5013856;28;20026;-66
2023/12/05 09:46:24;;;;;;;0.80;0.80;;;;;;;10.08;82.96;99099.34;5024557;28;20029;-65
2023/12/05 09:48:54;;;;;;;;;;;;;;;10.04;83.27;99114.53;5016948;28;20065;-65
2023/12/05 09:51:19;;;;;;;0.70;0.70;;;;;;;9.95;83.35;99109.63;5012335;28;19909;-65
2023/12/05 09:53:45;;;;;;;0.80;0.80;;;;;;;9.94;84.74;99118.53;5014614;28;20559;-65
2023/12/05 09:56:13;;;;;;;0.80;0.80;;;;;;;9.98;84.24;99125.41;5029373;28;20115;-65
2023/12/05 09:58:45;;;;;;;0.63;0.63;;;;;;;9.99;84.84;99121.84;5029727;28;20452;-65
2023/12/05 10:01:16;;;;;;;0.70;0.70;;;;;;;9.94;84.19;99118.53;5015921;28;20028;-64
2023/12/05 10:03:43;;;;;;;0.70;0.70;;;;;;;9.94;84.80;99115.00;5029721;28;20030;-65
2023/12/05 10:06:10;;;;;;;0.70;0.70;;;;;;;10.00;85.59;99118.25;5012652;28;20127;-65
2023/12/05 10:08:37;;;;;;;0.70;0.70;;;;;;;9.97;84.06;99118.38;5024753;28;20026;-65
2023/12/05 10:11:04;;;;;;;0.70;0.70;;;;;;;9.90;84.48;99113.41;5032054;28;20369;-65
2023/12/05 10:13:30;;;;;;;0.70;0.70;;;;;;;9.94;85.37;99123.84;5026453;28;20029;-62
2023/12/05 10:15:58;;;;;;;0.75;0.75;;;;;;;9.94;84.21;99118.53;4997693;28;20032;-61
2023/12/05 10:18:25;;;;;;;0.70;0.70;;;;;;;9.90;84.38;99110.75;5015623;28;20029;-62
2023/12/05 10:20:51;;;;;;;0.80;0.80;;;;;;;9.93;85.07;99111.50;5034869;28;20121;-62
2023/12/05 10:23:18;;;;;;;0.70;0.70;;;;;;;9.97;84.82;99107.75;5036064;28;20112;-61
2023/12/05 10:25:44;;;;;;;0.80;0.80;;;;;;;9.94;84.31;99101.72;5031482;28;20079;-62
2023/12/05 10:28:10;;;;;;;0.73;0.73;;;;;;;10.01;84.31;99104.03;5034770;28;20033;-61
2023/12/05 10:30:39;;;;;;;0.80;0.80;;;;;;;10.05;84.07;99107.44;5032831;28;20515;-61
2023/12/05 10:33:15;;;;;;;0.80;0.80;;;;;;;10.04;83.99;99109.22;5034070;28;20434;-61
2023/12/05 10:35:45;;;;;;;0.70;0.70;;;;;;;9.98;84.49;99112.13;5033936;28;20052;-61
2023/12/05 10:38:18;;;;;;;0.80;0.80;;;;;;;9.92;84.22;99104.44;5035081;28;20060;-61
2023/12/05 10:40:51;;;;;;;0.80;0.80;;;;;;;10.01;84.11;99104.03;5023985;28;20030;-61
2023/12/05 10:43:18;;;;;;;0.80;0.80;;;;;;;10.07;84.65;99092.25;5014375;28;20033;-61
2023/12/05 10:45:44;;;;;;;0.73;0.73;;;;;;;10.08;84.59;99108.16;5024152;28;20826;-62
2023/12/05 10:48:14;;;;;;;0.80;0.80;;;;;;;10.02;85.14;99103.09;5035726;28;20033;-61
2023/12/05 10:50:40;;;;;;;0.80;0.80;;;;;;;10.04;84.83;99103.91;5035432;28;20120;-61
2023/12/05 10:53:06;;;;;;;0.80;0.80;;;;;;;9.94;83.43;99096.41;5034331;28;20393;-61
2023/12/05 10:55:32;;;;;;;0.80;0.80;;;;;;;9.95;83.00;99096.31;5017130;28;20034;-62
2023/12/05 10:57:59;;;;;;;0.70;0.70;;;;;;;9.96;83.64;99094.53;5015542;28;20692;-61
2023/12/05 11:00:24;;;;;;;0.70;0.70;;;;;;;9.94;83.02;99086.66;5015460;28;20037;-61
2023/12/05 11:02:53;;;;;;;0.70;0.70;;;;;;;9.95;82.16;99088.34;5014018;28;20029;-62
2023/12/05 11:05:18;;;;;;;0.80;0.80;;;;;;;10.00;82.75;99091.69;5037003;28;20675;-61
2023/12/05 11:07:44;;;;;;;0.70;0.70;;;;;;;9.99;82.38;99081.13;5033388;28;20044;-62
2023/12/05 11:10:10;;;;;;;0.70;0.70;;;;;;;10.04;82.35;99077.34;5015686;28;20047;-61
2023/12/05 11:12:37;;;;;;;0.80;0.80;;;;;;;10.11;82.32;99084.13;5015432;28;20374;-62
2023/12/05 11:15:04;;;;;;;0.70;0.70;;;;;;;10.11;82.37;99089.44;5016969;28;20026;-62
2023/12/05 11:17:43;;;;;;;0.77;0.77;;;;;;;10.14;83.23;99094.63;5015030;28;20041;-62
2023/12/05 11:20:20;;;;;;;0.73;0.73;;;;;;;10.30;83.17;99098.28;5021159;28;20043;-62
2023/12/05 11:23:39;;;;;;;0.70;0.70;;;;;;;10.34;82.21;99096.34;5034428;28;20029;-61
2023/12/05 11:26:49;;;;;;;0.70;0.70;;;;;;;10.31;81.92;99092.03;4931490;29;20031;-66
2023/12/05 11:29:29;;;;;;;0.70;0.70;;;;;;;10.31;82.39;99100.00;4989314;28;20056;-67
2023/12/05 11:32:10;;;;;;;0.70;0.70;;;;;;;10.22;82.25;99095.13;5014429;28;20017;-65
2023/12/05 11:34:47;;;;;;;0.70;0.70;;;;;;;10.19;81.72;99094.41;5023415;28;20058;-65